Time;durP1;ratioP1;P1;durP2;ratioP2;P2;SDS_P1;SDS_P2;PMS_P1;PMS_P2;Temp;Humidity;BMP_temperature;BMP_pressure;BME280_temperature;BME280_humidity;BME280_pressure;Samples;Min_cycle;Max_cycle;Signal;HPM_P1;HPM_P2
2021/04/10 00:01:41;;;;;;;7.68;2.38;;;9.70;66.00;;;;;;5070916;28;20381;-89
2021/04/10 00:04:13;;;;;;;10.25;2.90;;;9.70;66.00;;;;;;5054571;28;20072;-88
2021/04/10 00:06:40;;;;;;;8.85;3.05;;;9.60;66.00;;;;;;5067241;28;20452;-89
2021/04/10 00:09:11;;;;;;;6.15;2.92;;;9.70;66.20;;;;;;5075502;28;20084;-88
2021/04/10 00:11:38;;;;;;;5.20;2.67;;;9.60;66.80;;;;;;5070153;28;20453;-90
2021/04/10 00:14:08;;;;;;;7.32;2.78;;;9.60;67.10;;;;;;5074824;28;20044;-90
2021/04/10 00:16:42;;;;;;;7.75;2.85;;;9.60;67.10;;;;;;5071706;28;20041;-90
2021/04/10 00:19:09;;;;;;;8.07;2.53;;;9.60;66.90;;;;;;5042523;28;20147;-89
2021/04/10 00:21:36;;;;;;;9.57;2.50;;;9.70;67.30;;;;;;5072067;28;20523;-90
2021/04/10 00:26:55;;;;;;;6.25;2.45;;;9.70;65.90;;;;;;5065256;28;20417;-90
2021/04/10 00:29:21;;;;;;;4.88;2.67;;;9.80;66.50;;;;;;5055877;28;20052;-91
2021/04/10 00:31:55;;;;;;;11.98;3.20;;;9.80;66.70;;;;;;5065495;28;20056;-91
2021/04/10 00:34:23;;;;;;;6.82;2.67;;;9.80;66.90;;;;;;5075681;28;20116;-90
2021/04/10 00:36:51;;;;;;;6.20;2.08;;;9.70;66.80;;;;;;5070235;28;20048;-89
2021/04/10 00:39:22;;;;;;;7.60;2.53;;;9.70;66.90;;;;;;5076810;28;20453;-89
2021/04/10 00:41:48;;;;;;;8.85;2.70;;;9.70;67.10;;;;;;5075386;28;20048;-89
2021/04/10 00:44:15;;;;;;;5.40;2.35;;;9.70;67.30;;;;;;5063829;28;20037;-89
2021/04/10 00:46:42;;;;;;;6.50;2.60;;;9.70;67.30;;;;;;5082272;28;20104;-90
2021/04/10 00:49:16;;;;;;;4.93;2.30;;;9.70;67.70;;;;;;5088349;28;20106;-89
2021/04/10 00:51:43;;;;;;;4.22;2.67;;;9.60;68.00;;;;;;5063736;28;20044;-88
2021/04/10 00:54:09;;;;;;;3.85;2.30;;;9.60;68.30;;;;;;5042536;28;20054;-90
2021/04/10 00:56:36;;;;;;;5.82;2.63;;;9.70;68.30;;;;;;5049130;28;20060;-90
2021/04/10 00:59:11;;;;;;;7.00;2.50;;;9.70;68.80;;;;;;5073777;28;20067;-87
2021/04/10 01:01:38;;;;;;;7.00;2.40;;;9.70;68.30;;;;;;5070330;28;20362;-89
2021/04/10 01:04:08;;;;;;;6.07;2.67;;;9.70;68.30;;;;;;5054564;28;20128;-91
2021/04/10 01:06:42;;;;;;;12.25;2.47;;;9.70;68.40;;;;;;5056047;28;20052;-90
2021/04/10 01:09:09;;;;;;;8.15;2.28;;;9.70;68.80;;;;;;5055757;28;20056;-89
2021/04/10 01:11:56;;;;;;;5.53;2.22;;;9.60;69.00;;;;;;5073756;28;20071;-89
2021/04/10 01:14:45;;;;;;;5.03;2.35;;;9.60;69.30;;;;;;5056278;28;20122;-89
2021/04/10 01:17:16;;;;;;;7.38;2.67;;;9.60;69.40;;;;;;5055883;28;20063;-90
2021/04/10 01:20:13;;;;;;;7.53;2.10;;;9.60;69.70;;;;;;5056379;28;20049;-87
2021/04/10 01:23:01;;;;;;;5.68;2.55;;;9.60;70.00;;;;;;5050594;28;20111;-88
2021/04/10 01:25:31;;;;;;;6.65;2.05;;;9.70;69.20;;;;;;5049783;28;20167;-89
2021/04/10 01:27:59;;;;;;;8.13;2.00;;;9.70;69.60;;;;;;5055663;28;20151;-90
2021/04/10 01:30:33;;;;;;;5.72;1.98;;;9.70;69.70;;;;;;5072128;28;20473;-89
2021/04/10 01:33:16;;;;;;;6.22;2.20;;;9.70;69.70;;;;;;5068604;28;20094;-90
2021/04/10 01:35:49;;;;;;;6.72;2.03;;;9.60;70.50;;;;;;5044759;28;20071;-88
2021/04/10 01:38:19;;;;;;;4.78;2.13;;;9.60;70.50;;;;;;5039599;28;20131;-88
2021/04/10 01:40:50;;;;;;;6.25;2.17;;;9.60;70.90;;;;;;5072676;28;20076;-91
2021/04/10 01:43:17;;;;;;;4.85;2.13;;;9.60;70.80;;;;;;5047679;28;20053;-91
2021/04/10 01:45:45;;;;;;;4.15;1.90;;;9.70;70.70;;;;;;5053932;28;20381;-90
2021/04/10 01:48:21;;;;;;;6.00;2.33;;;9.70;70.30;;;;;;5052526;28;20478;-91
2021/04/10 01:50:50;;;;;;;10.50;2.42;;;9.70;70.30;;;;;;5050703;28;20053;-92
2021/04/10 01:53:22;;;;;;;4.38;1.90;;;9.70;71.10;;;;;;5070513;28;20056;-91
2021/04/10 01:55:50;;;;;;;5.03;1.90;;;9.70;70.80;;;;;;5059105;28;20049;-88
2021/04/10 01:58:20;;;;;;;7.93;2.40;;;9.70;71.10;;;;;;5055281;28;20488;-90
2021/04/10 02:00:47;;;;;;;7.05;2.47;;;9.70;71.20;;;;;;5073365;28;20052;-89
2021/04/10 02:03:18;;;;;;;6.30;2.40;;;9.60;71.60;;;;;;5071544;28;20477;-89
2021/04/10 02:05:47;;;;;;;8.88;2.40;;;9.60;72.40;;;;;;5042576;28;20116;-88
2021/04/10 02:08:15;;;;;;;4.93;2.25;;;9.50;73.10;;;;;;5044206;28;20078;-88
2021/04/10 02:10:42;;;;;;;5.78;2.63;;;9.50;73.00;;;;;;5074071;28;20135;-89
2021/04/10 02:13:10;;;;;;;4.03;1.90;;;9.50;73.40;;;;;;5070532;28;20056;-90
2021/04/10 02:15:37;;;;;;;5.78;1.90;;;9.50;73.60;;;;;;5065245;28;20045;-90
2021/04/10 02:18:14;;;;;;;8.07;1.90;;;9.50;74.20;;;;;;5049134;28;20054;-90
2021/04/10 02:20:45;;;;;;;8.30;2.10;;;9.50;74.40;;;;;;5052572;28;20043;-89
2021/04/10 02:23:14;;;;;;;2.67;1.60;;;9.50;74.40;;;;;;5061384;28;20450;-89
2021/04/10 02:25:41;;;;;;;3.40;1.83;;;9.50;74.60;;;;;;5055156;28;20104;-91
2021/04/10 02:28:08;;;;;;;6.97;2.63;;;9.50;74.60;;;;;;5033158;28;20059;-90
2021/04/10 02:30:38;;;;;;;5.07;1.85;;;9.50;74.70;;;;;;5072662;28;20159;-91
2021/04/10 02:33:10;;;;;;;5.93;2.13;;;9.50;75.50;;;;;;5061592;28;20045;-90
2021/04/10 02:35:43;;;;;;;;;;;9.50;75.80;;;;;;5072365;28;20078;-89
2021/04/10 02:38:12;;;;;;;5.28;2.30;;;9.50;75.90;;;;;;5071812;28;19924;-91
2021/04/10 02:40:43;;;;;;;9.48;2.15;;;9.50;76.30;;;;;;5055707;28;20041;-91
2021/04/10 02:43:17;;;;;;;6.10;2.25;;;9.40;76.70;;;;;;5060827;28;20135;-89
2021/04/10 02:45:45;;;;;;;3.63;2.10;;;9.40;77.10;;;;;;5048506;28;20053;-90
2021/04/10 02:48:22;;;;;;;5.25;1.70;;;9.40;77.40;;;;;;5073354;28;20052;-88
2021/04/10 02:50:54;;;;;;;3.13;1.65;;;9.40;77.40;;;;;;5048939;28;20071;-90
2021/04/10 02:53:23;;;;;;;2.70;1.52;;;9.50;78.10;;;;;;5068611;28;20072;-90
2021/04/10 02:56:05;;;;;;;4.07;1.80;;;9.50;78.30;;;;;;5054503;28;20147;-91
2021/04/10 02:58:32;;;;;;;5.72;2.20;;;9.50;78.20;;;;;;5063573;28;20123;-90
2021/04/10 03:00:59;;;;;;;3.40;1.70;;;9.60;79.10;;;;;;5055638;28;20048;-89
2021/04/10 03:03:32;;;;;;;4.55;1.80;;;9.60;79.20;;;;;;5053921;28;20059;-88
2021/04/10 03:06:04;;;;;;;2.30;1.70;;;9.60;79.40;;;;;;5023282;28;20061;-88
2021/04/10 03:08:33;;;;;;;2.55;1.40;;;9.70;79.70;;;;;;5069559;28;20137;-92
2021/04/10 03:11:03;;;;;;;5.63;2.17;;;9.70;80.30;;;;;;5047698;28;20064;-88
2021/04/10 03:13:32;;;;;;;5.85;1.92;;;9.80;80.10;;;;;;5055180;28;20048;-90
2021/04/10 03:16:05;;;;;;;6.72;1.85;;;9.80;80.50;;;;;;5038076;28;20461;-91
2021/04/10 03:18:34;;;;;;;6.95;2.05;;;9.80;80.80;;;;;;5067639;28;20104;-90
2021/04/10 03:21:07;;;;;;;3.67;1.65;;;9.80;80.50;;;;;;5053213;28;20227;-88
2021/04/10 03:23:39;;;;;;;4.43;1.73;;;9.80;81.20;;;;;;5073944;28;20098;-88
2021/04/10 03:26:07;;;;;;;4.57;1.95;;;9.80;80.90;;;;;;5028373;28;20064;-91
2021/04/10 03:28:42;;;;;;;6.88;1.85;;;9.80;81.70;;;;;;5051868;28;20052;-88
2021/04/10 03:31:09;;;;;;;4.60;1.70;;;9.80;82.40;;;;;;5052929;28;20434;-93
2021/04/10 03:33:37;;;;;;;5.32;1.63;;;9.90;83.40;;;;;;5067484;28;20045;-91
2021/04/10 03:36:06;;;;;;;4.15;1.80;;;9.80;84.00;;;;;;5070759;28;20068;-90
2021/04/10 03:38:33;;;;;;;5.90;2.13;;;9.90;84.80;;;;;;5054419;28;20053;-90
2021/04/10 03:41:08;;;;;;;7.57;2.15;;;9.90;85.60;;;;;;5068462;28;20119;-92
2021/04/10 03:43:47;;;;;;;5.82;1.70;;;9.80;85.30;;;;;;5073228;28;20359;-90
2021/04/10 03:46:19;;;;;;;4.50;2.13;;;9.90;85.50;;;;;;5063837;28;20112;-90
2021/04/10 03:48:51;;;;;;;4.18;1.40;;;9.90;84.90;;;;;;5042406;28;20052;-89
2021/04/10 03:51:17;;;;;;;2.42;1.60;;;9.90;84.30;;;;;;5072364;28;20055;-90
2021/04/10 03:53:44;;;;;;;4.88;1.60;;;9.90;84.60;;;;;;5055290;28;20052;-90
2021/04/10 03:56:10;;;;;;;4.25;1.58;;;9.90;83.40;;;;;;5039165;28;20128;-90
2021/04/10 03:58:37;;;;;;;6.20;1.85;;;9.90;82.10;;;;;;5074953;28;20385;-90
2021/04/10 04:01:04;;;;;;;3.25;1.60;;;9.90;82.20;;;;;;5053739;28;20048;-90
2021/04/10 04:03:43;;;;;;;;;;;9.90;80.40;;;;;;5059703;28;20049;-91
2021/04/10 04:06:10;;;;;;;5.43;2.08;;;9.90;86.00;;;;;;5051880;28;19921;-89
2021/04/10 04:08:37;;;;;;;5.97;2.00;;;9.70;99.90;;;;;;5051062;28;20056;-88
2021/04/10 04:11:05;;;;;;;10.50;2.10;;;9.20;99.90;;;;;;5052367;28;20130;-88
2021/04/10 04:13:31;;;;;;;2.13;1.80;;;8.90;99.90;;;;;;5072589;28;20150;-87
2021/04/10 04:16:01;;;;;;;4.65;1.80;;;8.70;99.90;;;;;;5035000;28;20107;-90
2021/04/10 04:18:27;;;;;;;5.20;1.95;;;8.50;99.90;;;;;;5165434;22;20148;-88
2021/04/10 04:21:03;;;;;;;6.13;2.35;;;8.50;99.90;;;;;;5048367;28;20070;-90
2021/04/10 04:23:30;;;;;;;6.68;1.90;;;8.60;99.90;;;;;;5045575;28;20056;-89
2021/04/10 04:25:56;;;;;;;3.88;1.83;;;8.80;99.90;;;;;;5066813;28;20056;-87
2021/04/10 04:28:23;;;;;;;4.30;2.00;;;8.90;99.90;;;;;;5070303;28;20063;-88
2021/04/10 04:30:50;;;;;;;4.18;1.75;;;8.90;99.90;;;;;;5070345;28;20071;-88
2021/04/10 04:33:17;;;;;;;4.05;1.58;;;8.90;99.90;;;;;;5067320;28;20041;-88
2021/04/10 04:35:44;;;;;;;3.40;1.98;;;9.00;99.90;;;;;;5070163;28;20087;-88
2021/04/10 04:38:11;;;;;;;5.90;2.00;;;9.10;99.90;;;;;;5062534;28;20045;-90
2021/04/10 04:40:37;;;;;;;10.85;2.20;;;9.00;99.90;;;;;;5055071;28;20462;-89
2021/04/10 04:43:03;;;;;;;5.57;1.58;;;9.10;99.90;;;;;;5041956;28;20068;-88
2021/04/10 04:45:30;;;;;;;5.47;2.00;;;9.00;99.90;;;;;;5050368;28;20057;-89
2021/04/10 04:48:03;;;;;;;4.15;1.90;;;8.90;99.90;;;;;;5035922;28;20053;-89
2021/04/10 04:50:29;;;;;;;3.47;1.92;;;8.80;99.90;;;;;;5051001;28;20053;-89
2021/04/10 04:52:55;;;;;;;3.63;2.00;;;8.70;99.90;;;;;;5033052;28;20045;-88
2021/04/10 04:55:22;;;;;;;4.47;2.20;;;8.50;99.90;;;;;;5048470;28;20131;-88
2021/04/10 04:57:49;;;;;;;4.50;1.77;;;8.30;99.90;;;;;;5039074;28;20041;-89
2021/04/10 05:00:15;;;;;;;3.80;2.15;;;8.20;99.90;;;;;;5066913;28;20037;-89
2021/04/10 05:02:42;;;;;;;5.32;1.90;;;8.10;99.90;;;;;;5057946;28;20045;-89
2021/04/10 05:05:13;;;;;;;4.28;2.22;;;8.10;99.90;;;;;;5067707;28;20343;-87
2021/04/10 05:07:39;;;;;;;7.32;2.22;;;8.10;99.90;;;;;;5060321;28;20379;-89
2021/04/10 05:10:06;;;;;;;8.45;2.30;;;8.00;99.90;;;;;;5040638;28;20071;-88
2021/04/10 05:12:33;;;;;;;3.35;2.30;;;8.00;99.90;;;;;;5052311;28;20056;-90
2021/04/10 05:14:59;;;;;;;4.97;2.15;;;8.00;99.90;;;;;;5036928;28;20048;-89
2021/04/10 05:17:28;;;;;;;3.40;2.10;;;8.00;99.90;;;;;;5055306;28;20482;-87
2021/04/10 05:19:57;;;;;;;5.82;2.15;;;8.00;99.90;;;;;;5055847;28;20044;-90
2021/04/10 05:22:25;;;;;;;4.30;2.22;;;8.00;99.90;;;;;;5052168;28;20062;-89
2021/04/10 05:24:51;;;;;;;3.30;2.42;;;7.80;99.90;;;;;;5065965;28;20170;-87
2021/04/10 05:27:18;;;;;;;3.67;2.40;;;7.60;99.90;;;;;;5061669;28;20393;-90
2021/04/10 05:29:44;;;;;;;2.83;2.00;;;7.50;99.90;;;;;;5056721;28;20147;-86
2021/04/10 05:32:11;;;;;;;6.72;2.30;;;7.40;99.90;;;;;;5038456;28;20083;-90
2021/04/10 05:34:40;;;;;;;3.67;2.28;;;7.40;99.90;;;;;;5070201;28;20048;-88
2021/04/10 05:37:09;;;;;;;5.90;2.67;;;7.40;99.90;;;;;;5057478;28;20041;-88
2021/04/10 05:39:36;;;;;;;4.05;2.10;;;7.50;99.90;;;;;;5055593;28;20037;-88
2021/04/10 05:42:05;;;;;;;6.10;2.35;;;7.50;99.90;;;;;;5061273;28;20055;-88
2021/04/10 05:44:32;;;;;;;6.22;2.47;;;7.60;99.90;;;;;;5073852;28;20358;-89
2021/04/10 05:47:02;;;;;;;4.00;1.83;;;7.70;99.90;;;;;;5074221;28;20059;-88
2021/04/10 05:49:29;;;;;;;4.70;2.10;;;7.80;99.90;;;;;;5053240;28;20040;-89
2021/04/10 05:51:56;;;;;;;5.40;2.17;;;7.90;99.90;;;;;;5055383;28;20051;-88
2021/04/10 05:54:24;;;;;;;3.83;2.35;;;8.00;99.90;;;;;;5058608;28;20048;-89
2021/04/10 05:56:53;;;;;;;5.20;2.03;;;8.00;99.90;;;;;;5075579;28;20044;-91
2021/04/10 05:59:19;;;;;;;6.78;2.75;;;8.10;99.90;;;;;;5048445;28;20041;-86
2021/04/10 06:01:49;;;;;;;2.25;1.92;;;8.10;99.90;;;;;;5059364;28;20051;-87
2021/04/10 06:04:16;;;;;;;4.50;2.15;;;8.20;99.90;;;;;;5024844;28;20048;-87
2021/04/10 06:06:43;;;;;;;3.97;2.10;;;8.30;99.90;;;;;;5038875;28;20060;-85
2021/04/10 06:09:13;;;;;;;8.05;2.72;;;8.40;99.90;;;;;;5038663;28;20055;-86
2021/04/10 06:11:42;;;;;;;4.07;1.95;;;8.40;99.90;;;;;;5074162;28;20056;-89
2021/04/10 06:14:09;;;;;;;4.15;2.08;;;8.40;99.90;;;;;;5057355;28;20128;-88
2021/04/10 06:16:40;;;;;;;5.05;1.88;;;8.50;99.90;;;;;;5054445;28;20044;-87
2021/04/10 06:19:32;;;;;;;5.65;2.17;;;8.50;99.90;;;;;;5054582;28;20120;-86
2021/04/10 06:21:59;;;;;;;5.22;2.10;;;8.50;99.90;;;;;;5036179;28;20056;-86
2021/04/10 06:24:30;;;;;;;7.90;2.30;;;8.50;99.90;;;;;;5067753;28;20092;-83
2021/04/10 06:27:01;;;;;;;4.40;2.20;;;8.50;99.90;;;;;;5049949;28;20049;-84
2021/04/10 06:29:29;;;;;;;3.38;2.10;;;8.50;99.90;;;;;;5036670;28;20115;-85
2021/04/10 06:32:13;;;;;;;4.88;2.00;;;8.50;99.90;;;;;;5050656;28;20118;-85
2021/04/10 06:34:39;;;;;;;11.70;2.03;;;8.50;99.90;;;;;;5032439;28;20128;-86
2021/04/10 06:37:06;;;;;;;3.90;1.75;;;8.50;99.90;;;;;;5050423;28;20056;-87
2021/04/10 06:39:35;;;;;;;4.10;2.28;;;8.50;99.90;;;;;;5052603;28;20078;-92
2021/04/10 06:42:05;;;;;;;7.32;2.67;;;8.50;99.90;;;;;;5053055;28;20055;-89
2021/04/10 06:44:36;;;;;;;5.80;2.33;;;8.40;99.90;;;;;;5054075;28;20096;-88
2021/04/10 06:47:08;;;;;;;4.15;1.70;;;8.40;99.90;;;;;;5056774;28;20050;-89
2021/04/10 06:49:36;;;;;;;3.55;1.90;;;8.40;99.90;;;;;;5075928;28;20072;-91
2021/04/10 06:52:09;;;;;;;3.92;2.65;;;8.40;99.90;;;;;;5048515;28;20075;-91
2021/04/10 06:54:39;;;;;;;4.28;2.28;;;8.40;99.90;;;;;;5062150;28;20499;-88
2021/04/10 06:57:21;;;;;;;6.72;2.20;;;8.50;99.90;;;;;;5045488;28;20136;-89
2021/04/10 07:00:09;;;;;;;5.28;2.13;;;8.60;99.90;;;;;;5064915;28;20048;-89
2021/04/10 07:05:34;;;;;;;4.55;2.10;;;8.60;99.90;;;;;;5058093;28;20144;-90
2021/04/10 07:08:11;;;;;;;4.50;2.22;;;8.60;99.90;;;;;;5067304;28;20079;-90
2021/04/10 07:10:41;;;;;;;3.30;1.90;;;8.60;99.90;;;;;;5088719;28;20052;-89
2021/04/10 07:13:35;;;;;;;5.95;2.03;;;8.60;99.90;;;;;;5056392;28;20067;-88
2021/04/10 07:16:15;;;;;;;4.75;2.10;;;8.70;99.90;;;;;;5048760;28;20048;-89
2021/04/10 07:18:47;;;;;;;4.97;2.85;;;8.70;99.90;;;;;;5043420;28;20052;-88
2021/04/10 07:21:19;;;;;;;6.95;2.33;;;8.70;99.90;;;;;;5052946;28;20040;-90
2021/04/10 07:23:48;;;;;;;;;;;8.70;99.90;;;;;;5058011;28;20155;-88
2021/04/10 07:26:16;;;;;;;4.95;3.17;;;8.70;99.90;;;;;;5053262;28;19931;-89
2021/04/10 07:28:43;;;;;;;5.22;2.25;;;8.70;99.90;;;;;;5051751;28;20064;-88
2021/04/10 07:31:20;;;;;;;2.97;2.00;;;8.70;99.90;;;;;;5059013;28;20394;-89
2021/04/10 07:34:15;;;;;;;5.68;2.30;;;8.70;99.90;;;;;;5058603;28;20052;-88
2021/04/10 07:36:54;;;;;;;4.43;1.73;;;8.60;99.90;;;;;;5071733;28;20104;-89
2021/04/10 07:39:20;;;;;;;4.75;2.35;;;8.60;99.90;;;;;;5060582;28;20044;-87
2021/04/10 07:42:23;;;;;;;6.68;2.03;;;8.60;99.90;;;;;;5065057;28;20138;-89
2021/04/10 07:44:52;;;;;;;2.25;1.88;;;8.60;99.90;;;;;;5080349;28;20054;-87
2021/04/10 07:47:19;;;;;;;2.97;1.98;;;8.70;99.90;;;;;;5054617;28;20357;-89
2021/04/10 07:49:45;;;;;;;5.53;1.90;;;8.70;99.90;;;;;;5048265;28;20051;-89
2021/04/10 07:52:14;;;;;;;2.00;1.67;;;8.80;99.90;;;;;;5070929;28;20127;-88
2021/04/10 07:54:43;;;;;;;2.60;2.05;;;8.90;99.90;;;;;;5049066;28;20048;-89
2021/04/10 07:57:11;;;;;;;4.22;2.10;;;9.00;99.90;;;;;;5053698;28;20074;-88
2021/04/10 07:59:49;;;;;;;3.17;1.90;;;9.00;99.90;;;;;;5071751;28;20048;-86
2021/04/10 08:02:17;;;;;;;3.33;2.15;;;9.00;99.90;;;;;;5055474;28;20361;-88
2021/04/10 08:04:58;;;;;;;4.28;2.17;;;9.00;99.90;;;;;;5067824;28;20185;-88
2021/04/10 08:07:31;;;;;;;3.40;2.15;;;9.10;99.90;;;;;;5066877;28;20060;-87
2021/04/10 08:10:06;;;;;;;3.50;2.08;;;9.20;99.90;;;;;;5073207;28;20045;-89
2021/04/10 08:12:37;;;;;;;4.97;1.98;;;9.20;99.90;;;;;;5077416;28;20414;-84
2021/04/10 08:15:08;;;;;;;;;;;9.30;99.90;;;;;;5070169;28;20055;-87
2021/04/10 08:17:39;;;;;;;3.33;2.30;;;9.30;99.90;;;;;;5075490;28;19975;-86
2021/04/10 08:20:30;;;;;;;3.97;2.10;;;9.40;99.90;;;;;;5076626;28;20485;-87
2021/04/10 08:23:22;;;;;;;5.20;2.70;;;9.50;99.90;;;;;;5059540;28;20044;-86
2021/04/10 08:25:50;;;;;;;5.68;1.83;;;9.50;99.90;;;;;;5065369;28;20041;-86
2021/04/10 08:28:17;;;;;;;5.78;2.20;;;9.40;99.90;;;;;;5054218;28;20343;-87
2021/04/10 08:31:19;;;;;;;4.90;2.05;;;9.40;99.90;;;;;;5073204;28;20116;-89
2021/04/10 08:33:47;;;;;;;2.65;1.70;;;9.40;99.90;;;;;;5070429;28;20140;-88
2021/04/10 08:36:14;;;;;;;4.55;1.70;;;9.40;99.90;;;;;;5075252;28;20492;-89
2021/04/10 08:38:45;;;;;;;2.95;1.83;;;9.50;99.90;;;;;;5048097;28;20051;-87
2021/04/10 08:41:14;;;;;;;2.53;1.70;;;9.50;99.90;;;;;;5041724;28;20303;-87
2021/04/10 08:43:50;;;;;;;4.00;1.70;;;9.60;99.90;;;;;;5058436;28;20044;-89
2021/04/10 08:46:19;;;;;;;3.67;1.75;;;9.70;99.90;;;;;;5049592;28;20057;-88
2021/04/10 08:48:56;;;;;;;2.67;1.65;;;9.80;99.90;;;;;;5079387;28;20135;-87
2021/04/10 08:51:25;;;;;;;1.45;1.30;;;9.90;99.90;;;;;;5068334;28;20108;-90
2021/04/10 08:54:16;;;;;;;1.48;1.38;;;9.90;99.90;;;;;;5086197;28;20099;-88
2021/04/10 09:04:17;;;;;;;4.63;1.85;;;10.00;99.90;;;;;;5072616;28;20090;-88
2021/04/10 09:06:47;;;;;;;7.47;2.28;;;10.30;99.90;;;;;;5067442;28;20060;-89
2021/04/10 09:10:07;;;;;;;;;;;;;;;;;;;;;
2021/04/10 09:21:58;;;;;;;1.90;1.60;;;10.90;96.50;;;;;;5010636;28;20512;-89
2021/04/10 09:29:06;;;;;;;4.97;1.52;;;11.20;99.30;;;;;;4932275;29;20169;-89
2021/04/10 09:31:36;;;;;;;3.15;1.50;;;11.30;96.10;;;;;;4986496;28;20708;-90
2021/04/10 09:34:28;;;;;;;1.65;1.15;;;11.20;94.00;;;;;;5055216;28;20370;-87
2021/04/10 09:36:54;;;;;;;1.85;1.40;;;11.10;94.00;;;;;;5044357;28;20417;-90
2021/04/10 09:39:54;;;;;;;2.13;1.23;;;11.00;95.10;;;;;;5056324;28;20122;-88
2021/04/10 09:45:15;;;;;;;3.53;1.50;;;10.70;96.90;;;;;;5050450;28;20469;-89
2021/04/10 09:47:54;;;;;;;2.35;1.23;;;10.70;97.30;;;;;;5064895;28;20139;-89
2021/04/10 09:50:27;;;;;;;1.85;1.30;;;10.70;97.10;;;;;;5066539;28;20049;-89
2021/04/10 09:52:56;;;;;;;2.65;1.38;;;10.70;97.00;;;;;;5069835;28;20091;-88
2021/04/10 09:55:23;;;;;;;4.68;1.50;;;10.50;96.80;;;;;;5058158;28;20041;-87
2021/04/10 09:58:43;;;;;;;2.47;1.30;;;10.50;97.80;;;;;;5073896;28;20056;-88
2021/04/10 10:01:38;;;;;;;1.48;1.25;;;10.60;97.80;;;;;;5037526;28;20060;-90
2021/04/10 10:04:13;;;;;;;3.70;1.27;;;10.70;97.30;;;;;;5043034;28;20514;-88
2021/04/10 10:06:46;;;;;;;3.05;1.70;;;10.80;95.70;;;;;;5055053;28;20044;-89
2021/04/10 10:09:30;;;;;;;2.85;1.30;;;10.80;95.60;;;;;;5054264;28;20524;-90
2021/04/10 10:12:28;;;;;;;;;;;10.90;94.20;;;;;;5038296;28;20056;-90
2021/04/10 10:14:54;;;;;;;2.80;1.60;;;11.00;94.30;;;;;;5053672;28;20246;-89
2021/04/10 10:17:27;;;;;;;2.03;1.30;;;11.00;93.70;;;;;;5054653;28;20385;-88
2021/04/10 10:20:08;;;;;;;2.05;1.23;;;11.10;92.90;;;;;;5054111;28;20106;-91
2021/04/10 10:22:35;;;;;;;5.93;2.00;;;11.20;93.00;;;;;;5043233;28;20071;-90
2021/04/10 10:25:04;;;;;;;1.58;1.10;;;11.40;93.30;;;;;;5036187;28;20109;-89
2021/04/10 10:27:45;;;;;;;2.33;1.40;;;11.50;90.50;;;;;;5058165;28;20056;-88
2021/04/10 10:30:21;;;;;;;2.85;1.33;;;11.60;88.10;;;;;;5035109;28;20067;-89
2021/04/10 10:32:49;;;;;;;1.60;1.40;;;11.50;89.90;;;;;;5057430;28;20144;-90
2021/04/10 10:35:18;;;;;;;1.80;1.13;;;11.50;90.00;;;;;;5034587;28;20122;-89
2021/04/10 10:38:04;;;;;;;1.42;1.23;;;11.50;87.40;;;;;;5038827;28;20072;-90
2021/04/10 10:40:37;;;;;;;1.60;1.38;;;11.60;89.10;;;;;;5037970;28;20041;-90
2021/04/10 10:43:09;;;;;;;3.80;1.48;;;11.60;88.40;;;;;;5055064;28;20187;-89
2021/04/10 10:45:45;;;;;;;1.75;1.27;;;11.70;86.80;;;;;;5063905;28;20468;-88
2021/04/10 10:48:32;;;;;;;2.65;1.30;;;11.70;85.40;;;;;;5065233;28;20044;-88
2021/04/10 10:50:59;;;;;;;1.75;1.40;;;11.80;83.50;;;;;;5053033;28;20127;-90
2021/04/10 10:53:47;;;;;;;3.03;1.08;;;11.90;82.60;;;;;;5049241;28;20052;-89
2021/04/10 10:56:26;;;;;;;1.88;1.10;;;11.90;82.20;;;;;;5041742;28;20139;-87
2021/04/10 10:58:59;;;;;;;4.50;1.20;;;12.10;81.30;;;;;;5044001;28;20056;-89
2021/04/10 11:01:28;;;;;;;1.10;1.00;;;12.20;79.40;;;;;;5059632;28;20045;-90
2021/04/10 11:04:20;;;;;;;3.35;1.05;;;12.40;76.60;;;;;;5049316;28;20140;-91
2021/04/10 11:06:56;;;;;;;2.70;1.20;;;12.70;74.80;;;;;;5055436;28;20055;-88
2021/04/10 11:09:39;;;;;;;;;;;13.20;72.80;;;;;;5054654;28;20049;-88
2021/04/10 11:12:23;;;;;;;1.20;1.10;;;13.60;70.70;;;;;;5037596;28;20293;-89
2021/04/10 11:14:58;;;;;;;3.00;1.05;;;13.90;69.30;;;;;;5055347;28;20486;-91
2021/04/10 11:17:45;;;;;;;3.97;0.90;;;14.20;65.30;;;;;;5043536;28;20087;-90
2021/04/10 11:20:33;;;;;;;2.47;0.93;;;14.20;65.30;;;;;;5060110;28;20040;-90
2021/04/10 11:23:07;;;;;;;2.65;1.08;;;14.20;64.30;;;;;;5029132;28;20135;-89
2021/04/10 11:25:54;;;;;;;1.42;0.90;;;14.20;62.50;;;;;;5057776;28;20098;-90
2021/04/10 11:28:32;;;;;;;1.30;0.80;;;14.20;63.90;;;;;;5059094;28;20506;-90
2021/04/10 11:31:14;;;;;;;1.47;1.10;;;14.40;62.60;;;;;;5050719;28;20103;-91
2021/04/10 11:33:42;;;;;;;1.45;0.90;;;14.50;62.10;;;;;;5036336;28;20144;-91
2021/04/10 11:40:18;;;;;;;3.28;1.20;;;14.40;61.30;;;;;;5043920;28;20041;-90
2021/04/10 11:43:04;;;;;;;;;;;;;;;;;;;;;
2021/04/10 11:46:18;;;;;;;2.70;1.30;;;14.50;62.60;;;;;;4990611;28;20137;-90
2021/04/10 11:48:44;;;;;;;1.10;1.00;;;14.90;60.40;;;;;;4975630;28;20525;-91
2021/04/10 11:51:24;;;;;;;2.95;1.15;;;14.90;58.90;;;;;;4977289;28;20132;-90
2021/04/10 11:53:52;;;;;;;3.38;1.13;;;14.80;59.30;;;;;;4969290;28;20480;-89
2021/04/10 11:56:36;;;;;;;1.98;0.88;;;14.90;58.30;;;;;;4979658;28;20065;-90
2021/04/10 12:03:59;;;;;;;;;;;;;;;;;;;;;
2021/04/10 12:07:18;;;;;;;2.97;0.75;;;16.90;53.20;;;;;;5013315;28;20048;-89
2021/04/10 12:09:46;;;;;;;2.17;0.73;;;19.00;48.50;;;;;;5034629;28;20052;-89
2021/04/10 12:12:13;;;;;;;1.70;0.80;;;20.00;46.30;;;;;;5061476;28;20152;-90
2021/04/10 12:14:44;;;;;;;1.25;0.68;;;20.70;47.20;;;;;;5087466;28;20067;-91
2021/04/10 12:17:15;;;;;;;0.90;0.55;;;22.80;41.30;;;;;;5093826;28;20147;-91
2021/04/10 12:19:42;;;;;;;1.50;0.43;;;22.40;37.10;;;;;;5080172;28;20138;-90
2021/04/10 12:22:24;;;;;;;1.05;0.60;;;21.60;38.50;;;;;;5080180;28;20053;-90
2021/04/10 12:24:54;;;;;;;1.52;0.60;;;20.80;37.50;;;;;;5090218;23;20055;-91
2021/04/10 12:27:21;;;;;;;1.33;0.60;;;19.90;37.70;;;;;;5062160;28;20045;-89
2021/04/10 12:29:49;;;;;;;1.42;0.90;;;19.50;39.20;;;;;;5066915;28;20108;-89
2021/04/10 12:32:19;;;;;;;1.95;0.60;;;18.60;40.70;;;;;;5065712;28;20053;-89
2021/04/10 12:34:46;;;;;;;1.70;0.60;;;18.40;40.70;;;;;;5059495;28;20049;-89
2021/04/10 12:37:20;;;;;;;1.45;0.70;;;18.10;40.30;;;;;;5057798;28;20489;-91
2021/04/10 12:39:57;;;;;;;;;;;;;;;;;;;;;
2021/04/10 12:42:39;;;;;;;1.10;0.70;;;19.00;38.40;;;;;;5056754;28;20052;-88
2021/04/10 12:45:19;;;;;;;0.90;0.60;;;21.00;35.10;;;;;;5057164;28;20064;-89
2021/04/10 12:47:48;;;;;;;1.13;0.80;;;22.20;33.20;;;;;;5058015;28;20067;-89
2021/04/10 12:50:23;;;;;;;0.77;0.70;;;23.20;33.20;;;;;;5061445;28;20045;-91
2021/04/10 12:52:52;;;;;;;1.08;0.70;;;23.70;28.90;;;;;;5050096;28;20413;-88
2021/04/10 12:55:25;;;;;;;1.20;0.50;;;21.70;30.20;;;;;;5058169;28;20469;-88
2021/04/10 12:57:52;;;;;;;3.08;0.50;;;21.40;30.70;;;;;;5077939;28;20366;-88
2021/04/10 13:00:20;;;;;;;2.65;0.68;;;20.40;31.80;;;;;;5050853;28;20441;-88
2021/04/10 13:02:52;;;;;;;2.25;0.60;;;19.20;32.90;;;;;;5045770;28;20454;-89
2021/04/10 13:05:22;;;;;;;;;;;18.60;34.40;;;;;;5062879;28;20073;-90
2021/04/10 13:08:14;;;;;;;3.08;0.73;;;17.90;35.50;;;;;;5020097;28;19933;-88
2021/04/10 13:10:42;;;;;;;1.60;0.82;;;17.50;35.50;;;;;;5020334;28;20597;-90
2021/04/10 13:13:22;;;;;;;1.65;0.90;;;17.20;36.70;;;;;;5020887;28;20179;-93
2021/04/10 13:15:49;;;;;;;1.88;0.70;;;18.40;37.00;;;;;;4987853;28;20132;-90
2021/04/10 13:18:19;;;;;;;2.70;0.60;;;19.90;34.80;;;;;;4988417;28;20501;-90
2021/04/10 13:20:50;;;;;;;0.90;0.45;;;20.90;32.20;;;;;;5023644;28;20521;-90
2021/04/10 13:23:16;;;;;;;1.48;0.70;;;20.70;31.70;;;;;;5002188;28;20052;-90
2021/04/10 13:25:43;;;;;;;1.17;0.57;;;19.90;32.60;;;;;;5005183;28;20134;-90
2021/04/10 13:28:13;;;;;;;4.03;0.82;;;20.20;33.80;;;;;;4977416;28;20078;-89
2021/04/10 13:30:40;;;;;;;2.03;0.80;;;21.00;32.60;;;;;;4999082;28;20127;-90
2021/04/10 13:33:12;;;;;;;2.97;0.55;;;21.40;30.30;;;;;;5009257;28;20134;-89
2021/04/10 13:35:39;;;;;;;0.82;0.60;;;21.60;30.10;;;;;;5004662;28;20073;-91
2021/04/10 13:38:16;;;;;;;3.35;0.90;;;20.60;30.00;;;;;;5012016;28;20057;-91
2021/04/10 13:40:43;;;;;;;1.52;0.82;;;19.70;32.50;;;;;;5046635;28;20045;-89
2021/04/10 13:43:20;;;;;;;1.83;1.00;;;19.90;33.20;;;;;;5054488;28;20049;-90
2021/04/10 13:46:11;;;;;;;1.27;0.80;;;20.50;32.90;;;;;;5029909;28;20052;-90
2021/04/10 13:48:51;;;;;;;3.88;0.88;;;22.00;31.00;;;;;;5039311;28;20033;-91
2021/04/10 13:51:27;;;;;;;1.98;0.70;;;23.30;29.00;;;;;;5018297;28;20379;-91
2021/04/10 13:54:26;;;;;;;2.30;0.70;;;22.30;29.40;;;;;;5034385;28;20115;-91
2021/04/10 13:57:17;;;;;;;2.30;1.05;;;21.30;30.90;;;;;;5002209;28;20144;-91
2021/04/10 13:59:48;;;;;;;4.32;0.60;;;22.00;31.00;;;;;;5009527;28;20443;-89
2021/04/10 14:02:18;;;;;;;2.10;0.90;;;21.80;30.30;;;;;;5017576;28;20127;-91
2021/04/10 14:05:32;;;;;;;1.85;0.63;;;22.30;31.50;;;;;;4992975;28;20434;-90
2021/04/10 14:08:07;;;;;;;4.03;0.70;;;24.10;28.10;;;;;;4964800;28;20050;-91
2021/04/10 14:13:49;;;;;;;2.20;1.10;;;25.60;26.50;;;;;;4962886;28;20068;-88